Enoch, Utah
Current Conditions -  °F | °C
As of 3:53 AM on Friday 24 Oct 2014 (Local Time) from KCDC Reporting Station
Clear Clear  
Wind Chill: 35°   Ceiling: Unl
Heat Index: 39°   Visibility: 10mi
Dew Point: 29°   Wind: 6mph
Humidity: 67%   Direction: 70°ENE
Pressure: 30.23"   Gusts: NA
Location:  37.7617°N, 113.219°W
Report Text: KCDC 240953Z AUTO 07005KT 10SM CLR 04/M02 A3023 RMK AO2 SLP193 T00391017 TSNO
Loading
Personal Weather Stations






























Interactive Weather Map
Tropical Storm Tracking
New forecast layout! Learn more

10-Day Weather Forecast

Advertisements
Track Severe Weather on mobile